Ingleside, Canada
Current Conditions -  °F | °C
As of 10:53 AM on Monday 24 Nov 2014 (Local Time) from KMSS Reporting Station
Overcast Overcast  
Wind Chill: 18°   Ceiling: 5500
Heat Index: 18°   Visibility: 10mi
Dew Point: 12°   Wind: 29mph
Humidity: 65%   Direction: 200°SSW
Pressure: 29.33"   Gusts: 39mph
Location:  45°N, 75°W
Report Text: KMSS 241553Z AUTO 20025G34KT 10SM OVC055 18/12 A2933 RMK AO2 PK WND 21034/1552 SLP935 T01830117
Loading
Personal Weather Stations






























Interactive Weather Map New forecast layout! Learn more

10-Day Weather Forecast

Advertisements
Track Severe Weather on mobile